createdAt,value
2019-04-30T00:00:01.150Z,59.37
2019-04-30T00:01:18.895Z,59.25
2019-04-30T00:02:27.734Z,59.61
2019-04-30T00:03:46.163Z,59.71
2019-04-30T00:04:51.849Z,59.84
2019-04-30T00:05:57.564Z,59.69
2019-04-30T00:07:01.112Z,59.67
2019-04-30T00:08:05.807Z,59.56
2019-04-30T00:09:15.133Z,59.51
2019-04-30T00:10:17.264Z,59.77
2019-04-30T00:11:20.988Z,60.20
2019-04-30T00:12:25.750Z,60.28
2019-04-30T00:13:29.543Z,60.23
2019-04-30T00:14:38.609Z,60.24
2019-04-30T00:15:38.779Z,60.25
2019-04-30T00:16:42.329Z,60.32
2019-04-30T00:17:48.831Z,60.06
2019-04-30T00:18:59.819Z,60.18
2019-04-30T00:19:59.842Z,59.99
2019-04-30T00:21:02.240Z,60.32
2019-04-30T00:22:05.918Z,60.24
2019-04-30T00:23:09.572Z,60.68
2019-04-30T00:24:13.202Z,60.57
2019-04-30T00:25:19.723Z,60.56
2019-04-30T00:26:22.421Z,60.24
2019-04-30T00:27:30.071Z,60.22
2019-04-30T00:28:31.547Z,60.63
2019-04-30T00:29:35.713Z,60.75
2019-04-30T00:30:43.828Z,60.22
2019-04-30T00:31:47.112Z,60.00
2019-04-30T00:32:50.935Z,60.39
2019-04-30T00:33:57.855Z,60.47
2019-04-30T00:35:00.275Z,60.49
2019-04-30T00:36:05.005Z,60.41
2019-04-30T00:37:13.815Z,60.23
2019-04-30T00:38:15.155Z,60.29
2019-04-30T00:39:19.026Z,60.24
2019-04-30T00:40:27.889Z,60.54
2019-04-30T00:41:30.182Z,60.61
2019-04-30T00:42:33.488Z,61.34
2019-04-30T00:43:37.784Z,61.40
2019-04-30T00:44:42.618Z,61.22
2019-04-30T00:45:47.545Z,61.10
2019-04-30T00:46:51.328Z,60.95
2019-04-30T00:47:55.983Z,60.78
2019-04-30T00:49:09.376Z,60.83
2019-04-30T00:50:06.900Z,60.79
2019-04-30T00:51:18.177Z,61.19
2019-04-30T00:52:15.938Z,61.60
2019-04-30T00:53:19.571Z,61.57
2019-04-30T00:54:29.372Z,62.00
2019-04-30T00:55:28.655Z,61.81
2019-04-30T00:56:32.220Z,61.69
2019-04-30T00:57:37.261Z,61.46
2019-04-30T00:58:41.592Z,61.26
2019-04-30T00:59:47.967Z,61.17
2019-04-30T01:01:06.766Z,60.96
2019-04-30T01:02:11.672Z,61.49
2019-04-30T01:03:17.566Z,62.11
2019-04-30T01:04:28.643Z,62.26
2019-04-30T01:05:32.307Z,62.28
2019-04-30T01:06:35.980Z,62.36
2019-04-30T01:07:48.116Z,62.60
2019-04-30T01:08:46.122Z,62.27
2019-04-30T01:09:50.116Z,62.59
2019-04-30T01:10:55.516Z,62.36
2019-04-30T01:11:59.298Z,62.52
2019-04-30T01:13:08.282Z,62.73
2019-04-30T01:14:09.815Z,62.92
2019-04-30T01:15:14.675Z,62.96
2019-04-30T01:16:19.548Z,62.85
2019-04-30T01:17:23.308Z,62.98
2019-04-30T01:18:28.632Z,62.75
2019-04-30T01:19:33.038Z,62.56
2019-04-30T01:20:38.596Z,62.31
2019-04-30T01:21:47.155Z,62.43
2019-04-30T01:22:48.660Z,62.62
2019-04-30T01:23:54.793Z,62.52
2019-04-30T01:25:01.306Z,62.64
2019-04-30T01:26:04.210Z,63.04
2019-04-30T01:27:10.438Z,62.88
2019-04-30T01:28:16.328Z,62.71
2019-04-30T01:29:20.524Z,62.36
2019-04-30T01:30:24.259Z,62.48
2019-04-30T01:31:31.642Z,62.48
2019-04-30T01:32:33.333Z,62.73
2019-04-30T01:33:38.896Z,62.84
2019-04-30T01:34:44.344Z,62.64
2019-04-30T01:35:48.791Z,62.45
2019-04-30T01:36:52.521Z,61.98
2019-04-30T01:37:56.149Z,61.93
2019-04-30T01:38:59.872Z,62.20
2019-04-30T01:40:10.637Z,62.37
2019-04-30T01:41:10.226Z,62.28
2019-04-30T01:42:13.925Z,62.19
2019-04-30T01:43:23.128Z,62.44
2019-04-30T01:44:22.939Z,62.56
2019-04-30T01:45:28.165Z,62.47
2019-04-30T01:46:32.012Z,62.50
2019-04-30T01:47:35.641Z,62.72
2019-04-30T01:48:39.442Z,62.78
2019-04-30T01:49:44.915Z,62.81
2019-04-30T01:50:48.872Z,62.85
2019-04-30T01:51:56.906Z,62.56
2019-04-30T01:52:59.118Z,62.40
2019-04-30T01:54:02.943Z,62.32
2019-04-30T01:55:08.471Z,62.72
2019-04-30T01:56:16.846Z,63.20
2019-04-30T01:57:22.128Z,63.20
2019-04-30T01:58:45.859Z,62.93
2019-04-30T02:00:03.074Z,62.81
2019-04-30T02:01:20.311Z,62.35
2019-04-30T02:02:25.593Z,62.30
2019-04-30T02:03:29.337Z,62.20
2019-04-30T02:04:33.036Z,62.79
2019-04-30T02:05:38.568Z,63.36
2019-04-30T02:06:42.568Z,63.43
2019-04-30T02:07:46.245Z,63.43
2019-04-30T02:08:49.900Z,63.17
2019-04-30T02:09:53.550Z,63.17
2019-04-30T02:10:59.260Z,62.77
2019-04-30T02:12:02.653Z,63.92
2019-04-30T02:13:06.346Z,63.92
2019-04-30T02:14:09.984Z,64.00
2019-04-30T02:15:13.832Z,63.77
2019-04-30T02:16:18.757Z,63.77
2019-04-30T02:17:22.862Z,64.14
2019-04-30T02:18:26.521Z,64.00
2019-04-30T02:19:31.207Z,63.26
2019-04-30T02:20:35.000Z,63.26
2019-04-30T02:21:38.693Z,64.10
2019-04-30T02:22:42.385Z,64.50
2019-04-30T02:23:46.041Z,64.50
2019-04-30T02:24:49.698Z,64.51
2019-04-30T02:25:53.353Z,64.36
2019-04-30T02:26:56.982Z,63.97
2019-04-30T02:28:00.666Z,63.36
2019-04-30T02:29:04.304Z,63.28
2019-04-30T02:30:11.107Z,63.90
2019-04-30T02:31:15.174Z,64.34
2019-04-30T02:32:20.778Z,64.34
2019-04-30T02:33:24.504Z,64.37
2019-04-30T02:34:49.800Z,64.22
2019-04-30T02:36:00.376Z,63.51
2019-04-30T02:37:09.996Z,63.51
2019-04-30T02:38:20.171Z,63.79
2019-04-30T02:39:23.316Z,64.22
2019-04-30T02:40:30.185Z,64.65
2019-04-30T02:41:34.740Z,63.63
2019-04-30T02:42:39.839Z,63.63
2019-04-30T02:43:43.968Z,64.16
2019-04-30T02:44:50.349Z,64.16
2019-04-30T02:45:55.923Z,64.52
2019-04-30T02:47:01.058Z,64.59
2019-04-30T02:48:05.886Z,65.00
2019-04-30T02:49:12.043Z,64.94
2019-04-30T02:50:19.758Z,64.89
2019-04-30T02:51:23.520Z,64.88
2019-04-30T02:52:29.388Z,64.88
2019-04-30T02:54:03.592Z,64.85
2019-04-30T02:55:10.108Z,64.96
2019-04-30T02:56:13.800Z,65.14
2019-04-30T02:57:20.428Z,65.44
2019-04-30T02:58:22.807Z,65.12
2019-04-30T02:59:26.458Z,64.90
2019-04-30T03:00:32.856Z,64.85
2019-04-30T03:01:35.479Z,64.52
2019-04-30T03:02:39.591Z,64.73
2019-04-30T03:03:43.330Z,65.00
2019-04-30T03:04:46.982Z,65.30
2019-04-30T03:05:50.623Z,65.68
2019-04-30T03:07:00.449Z,65.98
2019-04-30T03:08:04.119Z,66.05
2019-04-30T03:09:10.363Z,66.55
2019-04-30T03:10:13.768Z,66.62
2019-04-30T03:11:20.303Z,66.87
2019-04-30T03:12:22.824Z,66.95
2019-04-30T03:13:26.457Z,66.96
2019-04-30T03:14:31.357Z,66.89
2019-04-30T03:15:35.010Z,66.99
2019-04-30T03:16:55.340Z,67.01
2019-04-30T03:18:03.690Z,66.48
2019-04-30T03:19:25.002Z,66.58
2019-04-30T03:20:46.536Z,66.85
2019-04-30T03:21:51.817Z,67.16
2019-04-30T03:22:55.468Z,67.71
2019-04-30T03:24:00.577Z,67.94
2019-04-30T03:25:05.848Z,68.25
2019-04-30T03:26:12.839Z,68.51
2019-04-30T03:27:14.873Z,68.96
2019-04-30T03:28:20.172Z,69.35
2019-04-30T03:29:24.222Z,69.02
2019-04-30T03:30:31.833Z,69.11
2019-04-30T03:31:33.311Z,68.90
2019-04-30T03:32:42.281Z,68.66
2019-04-30T03:33:42.826Z,68.44
2019-04-30T03:34:51.114Z,68.43
2019-04-30T03:35:54.236Z,68.58
2019-04-30T03:37:01.644Z,68.56
2019-04-30T03:38:02.695Z,68.87
2019-04-30T03:39:10.352Z,68.72
2019-04-30T03:40:13.377Z,68.98
2019-04-30T03:41:19.747Z,69.04
2019-04-30T03:42:22.624Z,69.11
2019-04-30T03:43:26.641Z,69.29
2019-04-30T03:44:32.461Z,69.54
2019-04-30T03:45:35.715Z,70.00
2019-04-30T03:46:40.260Z,70.08
2019-04-30T03:47:44.163Z,70.07
2019-04-30T03:48:50.379Z,69.78
2019-04-30T03:49:53.572Z,69.69
2019-04-30T03:50:58.589Z,69.03
2019-04-30T03:52:02.637Z,69.30
2019-04-30T03:53:06.271Z,70.39
2019-04-30T03:54:10.492Z,70.79
2019-04-30T03:55:14.313Z,70.85
2019-04-30T03:56:20.019Z,70.25
2019-04-30T03:57:23.477Z,69.57
2019-04-30T03:58:29.223Z,69.37
2019-04-30T03:59:32.669Z,69.14
2019-04-30T04:00:50.288Z,69.16
2019-04-30T04:02:04.484Z,69.83
2019-04-30T04:03:10.167Z,69.45
2019-04-30T04:04:20.070Z,69.53
2019-04-30T04:05:24.967Z,69.20
2019-04-30T04:06:30.636Z,68.86
2019-04-30T04:07:56.237Z,69.30
2019-04-30T04:09:01.510Z,68.77
2019-04-30T04:10:10.524Z,68.62
2019-04-30T04:11:15.804Z,68.98
2019-04-30T04:12:30.537Z,69.37
2019-04-30T04:13:34.499Z,70.07
2019-04-30T04:14:39.417Z,68.14
2019-04-30T04:15:44.575Z,68.78
2019-04-30T04:16:50.965Z,68.96
2019-04-30T04:17:53.705Z,68.57
2019-04-30T04:18:59.452Z,68.98
2019-04-30T04:20:03.212Z,69.06
2019-04-30T04:21:16.044Z,69.29
2019-04-30T04:22:13.383Z,68.99
2019-04-30T04:23:19.257Z,68.75
2019-04-30T04:24:22.456Z,68.74
2019-04-30T04:25:26.086Z,67.81
2019-04-30T04:26:30.056Z,66.91
2019-04-30T04:27:33.770Z,66.65
2019-04-30T04:28:43.071Z,66.77
2019-04-30T04:29:43.283Z,66.96
2019-04-30T04:30:50.283Z,67.08
2019-04-30T04:31:52.295Z,67.14
2019-04-30T04:32:55.977Z,67.26
2019-04-30T04:34:00.208Z,67.21
2019-04-30T04:35:05.176Z,67.07
2019-04-30T04:36:09.308Z,67.46
2019-04-30T04:37:13.108Z,67.49
2019-04-30T04:38:20.646Z,67.48
2019-04-30T04:39:24.680Z,67.42
2019-04-30T04:40:30.237Z,67.35
2019-04-30T04:41:33.726Z,67.42
2019-04-30T04:42:39.622Z,67.30
2019-04-30T04:43:42.747Z,67.52
2019-04-30T04:44:46.376Z,67.48
2019-04-30T04:45:50.274Z,66.97
2019-04-30T04:46:54.499Z,66.73
2019-04-30T04:48:00.127Z,66.86
2019-04-30T04:49:03.534Z,66.79
2019-04-30T04:50:10.297Z,66.06
2019-04-30T04:51:27.669Z,65.56
2019-04-30T04:52:21.638Z,65.32
2019-04-30T04:53:24.361Z,64.44
2019-04-30T04:54:30.032Z,64.04
2019-04-30T04:55:33.425Z,64.04
2019-04-30T04:56:37.069Z,63.34
2019-04-30T04:57:40.710Z,63.09
2019-04-30T04:58:44.368Z,62.98
2019-04-30T04:59:49.957Z,62.64
2019-04-30T05:00:53.394Z,63.01
2019-04-30T05:01:57.099Z,63.28
2019-04-30T05:03:11.208Z,62.96
2019-04-30T05:04:14.842Z,62.11
2019-04-30T05:05:19.446Z,62.00
2019-04-30T05:06:23.316Z,61.93
2019-04-30T05:07:28.652Z,61.95
2019-04-30T05:08:32.413Z,62.51
2019-04-30T05:09:36.097Z,62.47
2019-04-30T05:10:39.745Z,62.61
2019-04-30T05:11:43.403Z,62.76
2019-04-30T05:12:50.578Z,62.66
2019-04-30T05:13:52.831Z,62.64
2019-04-30T05:14:56.477Z,62.22
2019-04-30T05:16:00.132Z,62.09
2019-04-30T05:17:03.805Z,61.45
2019-04-30T05:18:09.121Z,61.63
2019-04-30T05:19:12.832Z,61.87
2019-04-30T05:20:16.540Z,61.72
2019-04-30T05:21:20.231Z,61.71
2019-04-30T05:22:23.879Z,61.65
2019-04-30T05:23:29.669Z,61.73
2019-04-30T05:24:32.928Z,61.71
2019-04-30T05:25:36.581Z,61.76
2019-04-30T05:26:40.380Z,61.48
2019-04-30T05:27:44.426Z,61.80
2019-04-30T05:28:51.108Z,61.64
2019-04-30T05:29:53.567Z,61.62
2019-04-30T05:30:59.235Z,61.38
2019-04-30T05:32:02.684Z,61.56
2019-04-30T05:33:06.386Z,61.74
2019-04-30T05:34:10.376Z,62.24
2019-04-30T05:35:14.165Z,62.24
2019-04-30T05:36:19.199Z,61.81
2019-04-30T05:37:23.040Z,61.82
2019-04-30T05:38:29.020Z,61.36
2019-04-30T05:39:32.183Z,60.47
2019-04-30T05:40:35.833Z,59.54
2019-04-30T05:41:41.144Z,59.44
2019-04-30T05:42:44.909Z,59.11
2019-04-30T05:43:48.998Z,58.25
2019-04-30T05:44:52.810Z,58.15
2019-04-30T05:45:58.531Z,57.36
2019-04-30T05:47:01.812Z,57.41
2019-04-30T05:48:05.654Z,57.54
2019-04-30T05:49:12.322Z,57.51
2019-04-30T05:50:16.379Z,57.01
2019-04-30T05:51:21.296Z,57.50
2019-04-30T05:52:25.008Z,56.95
2019-04-30T05:53:28.871Z,57.22
2019-04-30T05:54:32.628Z,57.36
2019-04-30T05:55:39.548Z,56.52
2019-04-30T05:56:43.217Z,55.48
2019-04-30T05:57:53.853Z,55.62
2019-04-30T05:58:52.271Z,55.09
2019-04-30T05:59:56.120Z,54.31
2019-04-30T06:00:59.989Z,54.10
2019-04-30T06:02:03.662Z,53.90
2019-04-30T06:03:09.307Z,53.87
2019-04-30T06:04:12.768Z,53.75
2019-04-30T06:05:16.502Z,53.32
2019-04-30T06:06:20.163Z,53.77
2019-04-30T06:07:24.013Z,54.15
2019-04-30T06:08:32.788Z,54.19
2019-04-30T06:09:56.582Z,54.49
2019-04-30T06:11:01.907Z,54.24
2019-04-30T06:12:22.693Z,54.11
2019-04-30T06:13:28.725Z,53.97
2019-04-30T06:14:48.349Z,54.12
2019-04-30T06:15:48.879Z,54.07
2019-04-30T06:17:10.101Z,54.16
2019-04-30T06:18:14.130Z,54.24
2019-04-30T06:19:19.514Z,54.40
2019-04-30T06:20:23.422Z,54.21
2019-04-30T06:21:29.353Z,54.16
2019-04-30T06:22:32.919Z,53.92
2019-04-30T06:23:36.614Z,54.13
2019-04-30T06:24:40.671Z,54.27
2019-04-30T06:25:56.390Z,53.67
2019-04-30T06:26:49.838Z,54.09
2019-04-30T06:27:53.877Z,54.13
2019-04-30T06:28:59.272Z,54.08
2019-04-30T06:30:03.327Z,54.05
2019-04-30T06:31:09.017Z,54.08
2019-04-30T06:32:12.418Z,53.98
2019-04-30T06:33:16.152Z,53.25
2019-04-30T06:34:20.740Z,53.03
2019-04-30T06:35:24.811Z,52.90
2019-04-30T06:36:29.145Z,52.70
2019-04-30T06:37:32.803Z,52.48
2019-04-30T06:38:36.441Z,52.21
2019-04-30T06:39:40.122Z,52.41
2019-04-30T06:40:44.465Z,51.59
2019-04-30T06:41:49.398Z,51.89
2019-04-30T06:42:53.238Z,51.59
2019-04-30T06:43:58.661Z,51.85
2019-04-30T06:45:02.660Z,51.30
2019-04-30T06:46:06.296Z,50.77
2019-04-30T06:47:10.458Z,50.55
2019-04-30T06:48:17.043Z,50.74
2019-04-30T06:49:23.577Z,50.20
2019-04-30T06:50:29.167Z,50.00
2019-04-30T06:51:33.704Z,50.04
2019-04-30T06:52:39.015Z,49.70
2019-04-30T06:53:42.742Z,49.28
2019-04-30T06:54:46.449Z,49.42
2019-04-30T06:55:50.085Z,49.41
2019-04-30T06:56:54.119Z,49.40
2019-04-30T06:58:11.526Z,48.63
2019-04-30T06:59:09.239Z,48.69
2019-04-30T07:00:16.195Z,48.12
2019-04-30T07:01:19.871Z,48.25
2019-04-30T07:02:23.530Z,48.12
2019-04-30T07:03:28.932Z,48.71
2019-04-30T07:04:32.558Z,48.57
2019-04-30T07:05:37.070Z,48.68
2019-04-30T07:06:45.112Z,48.67
2019-04-30T07:08:09.815Z,49.10
2019-04-30T07:09:19.790Z,49.14
2019-04-30T07:10:25.057Z,48.86
2019-04-30T07:11:36.089Z,49.08
2019-04-30T07:12:49.062Z,49.31
2019-04-30T07:13:53.077Z,49.12
2019-04-30T07:14:56.745Z,49.10
2019-04-30T07:16:00.458Z,48.66
2019-04-30T07:17:04.171Z,48.81
2019-04-30T07:18:09.089Z,48.86
2019-04-30T07:19:12.877Z,48.98
2019-04-30T07:20:18.963Z,48.25
2019-04-30T07:21:21.900Z,48.00
2019-04-30T07:22:37.703Z,48.26
2019-04-30T07:23:30.930Z,48.20
2019-04-30T07:24:34.783Z,47.99
2019-04-30T07:25:41.336Z,48.43
2019-04-30T07:26:45.004Z,48.16
2019-04-30T07:27:50.585Z,47.74
2019-04-30T07:28:55.447Z,47.21
2019-04-30T07:30:01.017Z,46.96
2019-04-30T07:31:11.776Z,46.93
2019-04-30T07:32:10.200Z,46.56
2019-04-30T07:33:14.513Z,45.36
2019-04-30T07:34:19.664Z,45.04
2019-04-30T07:35:25.140Z,44.00
2019-04-30T07:36:45.212Z,43.38
2019-04-30T07:37:36.248Z,42.34
2019-04-30T07:38:45.024Z,42.10
2019-04-30T07:39:45.375Z,41.40
2019-04-30T07:40:49.376Z,41.44
2019-04-30T07:41:53.112Z,42.39
2019-04-30T07:42:58.936Z,42.19
2019-04-30T07:44:02.136Z,42.83
2019-04-30T07:45:09.680Z,43.24
2019-04-30T07:46:13.435Z,43.50
2019-04-30T07:47:19.425Z,43.25
2019-04-30T07:48:26.423Z,43.85
2019-04-30T07:49:46.201Z,43.37
2019-04-30T07:50:33.917Z,43.44
2019-04-30T07:51:41.330Z,43.80
2019-04-30T07:53:01.040Z,44.08
2019-04-30T07:53:49.588Z,44.69
2019-04-30T07:54:53.635Z,45.28
2019-04-30T07:55:58.824Z,45.53
2019-04-30T07:57:02.559Z,45.95
2019-04-30T07:58:06.225Z,46.13
2019-04-30T07:59:11.075Z,45.81
2019-04-30T08:00:15.006Z,46.24
2019-04-30T08:01:19.715Z,46.25
2019-04-30T08:02:24.582Z,46.25
2019-04-30T08:03:30.833Z,46.05
2019-04-30T08:04:51.733Z,45.50
2019-04-30T08:06:00.097Z,45.42
2019-04-30T08:07:05.284Z,45.04
2019-04-30T08:08:21.079Z,45.25
2019-04-30T08:09:14.726Z,44.75
2019-04-30T08:10:20.895Z,44.51
2019-04-30T08:11:26.484Z,44.14
2019-04-30T08:12:36.101Z,44.44
2019-04-30T08:13:37.512Z,44.08
2019-04-30T08:14:41.969Z,43.74
2019-04-30T08:15:47.068Z,43.79
2019-04-30T08:16:51.118Z,43.96
2019-04-30T08:18:03.480Z,44.52
2019-04-30T08:19:00.289Z,44.28
2019-04-30T08:20:05.486Z,44.97
2019-04-30T08:21:11.724Z,45.37
2019-04-30T08:22:15.367Z,44.69
2019-04-30T08:23:34.099Z,44.41
2019-04-30T08:24:26.578Z,43.92
2019-04-30T08:25:30.214Z,44.24
2019-04-30T08:26:33.887Z,44.62
2019-04-30T08:27:39.276Z,44.48
2019-04-30T08:28:43.393Z,43.85
2019-04-30T08:29:49.952Z,43.71
2019-04-30T08:30:53.844Z,43.55
2019-04-30T08:31:59.364Z,43.68
2019-04-30T08:33:04.451Z,43.60
2019-04-30T08:34:10.715Z,43.61
2019-04-30T08:35:13.584Z,43.43
2019-04-30T08:36:17.220Z,43.47
2019-04-30T08:37:20.906Z,42.58
2019-04-30T08:38:24.618Z,42.47
2019-04-30T08:39:29.496Z,42.58
2019-04-30T08:40:33.649Z,42.33
2019-04-30T08:41:39.189Z,42.11
2019-04-30T08:42:42.695Z,42.10
2019-04-30T08:43:46.429Z,41.94
2019-04-30T08:44:50.084Z,41.83
2019-04-30T08:45:53.738Z,41.85
2019-04-30T08:46:59.053Z,41.79
2019-04-30T08:48:02.831Z,41.77
2019-04-30T08:49:08.750Z,42.55
2019-04-30T08:50:11.976Z,42.51
2019-04-30T08:51:15.763Z,42.51
2019-04-30T08:52:20.197Z,42.08
2019-04-30T08:53:29.207Z,42.50
2019-04-30T08:54:30.054Z,42.71
2019-04-30T08:55:34.188Z,42.39
2019-04-30T08:56:38.822Z,42.20
2019-04-30T08:57:42.588Z,42.52
2019-04-30T08:58:46.219Z,41.83
2019-04-30T08:59:49.886Z,41.32
2019-04-30T09:00:53.654Z,40.60
2019-04-30T09:01:58.876Z,39.80
2019-04-30T09:03:02.698Z,37.29
2019-04-30T09:04:07.684Z,36.39
2019-04-30T09:05:18.450Z,38.28
2019-04-30T09:06:23.789Z,40.20
2019-04-30T09:07:29.670Z,41.41
2019-04-30T09:08:33.335Z,37.63
2019-04-30T09:09:38.894Z,36.84
2019-04-30T09:10:42.352Z,37.62
2019-04-30T09:11:53.012Z,38.79
2019-04-30T09:12:51.953Z,39.26
2019-04-30T09:13:55.896Z,38.61
2019-04-30T09:14:59.575Z,38.37
2019-04-30T09:16:05.313Z,36.84
2019-04-30T09:17:09.325Z,35.66
2019-04-30T09:18:13.018Z,34.76
2019-04-30T09:19:17.027Z,34.13
2019-04-30T09:20:21.802Z,33.03
2019-04-30T09:21:25.485Z,32.65
2019-04-30T09:22:29.372Z,32.34
2019-04-30T09:23:47.348Z,31.19
2019-04-30T09:24:41.061Z,29.98
2019-04-30T09:25:44.767Z,29.37
2019-04-30T09:26:49.287Z,30.02
2019-04-30T09:27:53.113Z,30.12
2019-04-30T09:28:56.765Z,31.02
2019-04-30T09:30:00.604Z,31.87
2019-04-30T09:31:04.262Z,31.58
2019-04-30T09:32:09.178Z,30.58
2019-04-30T09:33:13.265Z,29.08
2019-04-30T09:34:20.637Z,28.88
2019-04-30T09:35:23.625Z,29.61
2019-04-30T09:36:29.230Z,30.46
2019-04-30T09:37:33.144Z,30.09
2019-04-30T09:38:38.814Z,27.94
2019-04-30T09:39:43.758Z,27.29
2019-04-30T09:40:47.565Z,28.00
2019-04-30T09:41:51.335Z,29.06
2019-04-30T09:42:55.118Z,29.43
2019-04-30T09:43:59.745Z,30.16
2019-04-30T09:45:03.887Z,30.52
2019-04-30T09:46:18.704Z,30.73
2019-04-30T09:47:13.736Z,31.93
2019-04-30T09:48:19.029Z,32.22
2019-04-30T09:49:22.959Z,33.23
2019-04-30T09:50:28.651Z,33.97
2019-04-30T09:51:32.686Z,34.43
2019-04-30T09:52:39.218Z,35.12
2019-04-30T09:53:42.111Z,34.37
2019-04-30T09:54:47.184Z,35.77
2019-04-30T09:55:50.870Z,36.25
2019-04-30T09:56:54.526Z,36.57
2019-04-30T09:57:58.857Z,37.75
2019-04-30T09:59:02.621Z,39.40
2019-04-30T10:00:09.456Z,40.76
2019-04-30T10:01:13.074Z,41.57
2019-04-30T10:02:18.919Z,42.70
2019-04-30T10:03:23.040Z,44.25
2019-04-30T10:04:29.754Z,48.04
2019-04-30T10:05:32.491Z,50.08
2019-04-30T10:06:40.009Z,51.30
2019-04-30T10:07:41.621Z,54.45
2019-04-30T10:08:48.645Z,57.14
2019-04-30T10:09:51.039Z,59.99
2019-04-30T10:11:12.802Z,59.16
2019-04-30T10:12:19.681Z,61.22
2019-04-30T10:13:23.518Z,60.15
2019-04-30T10:14:28.862Z,61.06
2019-04-30T10:15:37.322Z,62.33
2019-04-30T10:16:54.541Z,63.23
2019-04-30T10:17:58.552Z,61.68
2019-04-30T10:19:02.189Z,62.61
2019-04-30T10:20:11.485Z,64.03
2019-04-30T10:21:15.743Z,64.72
2019-04-30T10:22:19.478Z,63.37
2019-04-30T10:23:23.281Z,63.09
2019-04-30T10:24:29.345Z,65.85
2019-04-30T10:25:32.721Z,66.24
2019-04-30T10:26:37.372Z,66.91
2019-04-30T10:27:41.061Z,65.09
2019-04-30T10:28:46.395Z,63.77
2019-04-30T10:29:50.228Z,63.61
2019-04-30T10:30:53.952Z,59.87
2019-04-30T10:31:58.770Z,61.60
2019-04-30T10:33:02.972Z,58.74
2019-04-30T10:34:06.618Z,58.84
2019-04-30T10:35:10.294Z,59.77
2019-04-30T10:36:14.073Z,57.05
2019-04-30T10:37:18.898Z,57.94
2019-04-30T10:38:22.814Z,54.96
2019-04-30T10:39:29.660Z,54.31
2019-04-30T10:40:32.846Z,48.92
2019-04-30T10:41:36.656Z,51.16
2019-04-30T10:42:40.295Z,54.09
2019-04-30T10:43:43.974Z,51.73
2019-04-30T10:44:47.609Z,52.36
2019-04-30T10:45:51.815Z,50.82
2019-04-30T10:46:55.768Z,51.93
2019-04-30T10:47:59.460Z,50.07
2019-04-30T10:49:03.193Z,50.31
2019-04-30T10:50:10.260Z,47.08
2019-04-30T10:51:13.926Z,49.88
2019-04-30T10:52:19.185Z,49.72
2019-04-30T10:53:23.108Z,50.39
2019-04-30T10:54:28.897Z,47.97
2019-04-30T10:55:32.228Z,51.88
2019-04-30T10:56:36.338Z,48.71
2019-04-30T10:57:39.975Z,46.67
2019-04-30T10:58:43.710Z,48.86
2019-04-30T10:59:50.526Z,48.73
2019-04-30T11:00:54.181Z,46.87
2019-04-30T11:01:59.210Z,48.97
2019-04-30T11:03:03.076Z,46.00
2019-04-30T11:04:07.774Z,43.91
2019-04-30T11:05:12.184Z,43.97
2019-04-30T11:06:16.126Z,43.94
2019-04-30T11:07:19.852Z,46.48
2019-04-30T11:08:23.623Z,47.72
2019-04-30T11:09:30.699Z,43.30
2019-04-30T11:10:35.035Z,42.43
2019-04-30T11:11:39.742Z,42.06
2019-04-30T11:12:43.831Z,42.60
2019-04-30T11:13:47.463Z,42.89
2019-04-30T11:14:51.116Z,40.48
2019-04-30T11:15:54.762Z,38.84
2019-04-30T11:17:02.078Z,39.80
2019-04-30T11:18:06.101Z,40.60
2019-04-30T11:19:10.106Z,41.38
2019-04-30T11:20:15.179Z,41.49
2019-04-30T11:21:19.744Z,41.30
2019-04-30T11:22:23.889Z,41.73
2019-04-30T11:23:29.592Z,40.88
2019-04-30T11:24:37.890Z,40.94
2019-04-30T11:25:41.265Z,38.36
2019-04-30T11:26:44.848Z,39.05
2019-04-30T11:27:50.553Z,39.57
2019-04-30T11:28:54.730Z,39.58
2019-04-30T11:30:03.587Z,40.75
2019-04-30T11:31:14.962Z,41.49
2019-04-30T11:32:20.677Z,39.74
2019-04-30T11:33:24.762Z,41.52
2019-04-30T11:34:28.512Z,40.18
2019-04-30T11:35:32.176Z,36.96
2019-04-30T11:36:35.889Z,39.11
2019-04-30T11:37:39.517Z,35.25
2019-04-30T11:38:43.152Z,36.04
2019-04-30T11:39:46.899Z,33.51
2019-04-30T11:40:50.526Z,34.74
2019-04-30T11:41:54.222Z,33.97
2019-04-30T11:42:57.867Z,33.23
2019-04-30T11:44:01.490Z,35.37
2019-04-30T11:45:09.503Z,37.38
2019-04-30T11:46:24.965Z,36.33
2019-04-30T11:47:30.297Z,37.18
2019-04-30T11:48:33.943Z,37.16
2019-04-30T11:49:37.653Z,36.42
2019-04-30T11:50:41.385Z,36.27
2019-04-30T11:51:45.079Z,35.25
2019-04-30T11:52:48.767Z,37.18
2019-04-30T11:53:52.466Z,39.44
2019-04-30T11:54:56.580Z,41.21
2019-04-30T11:56:00.218Z,40.89
2019-04-30T11:57:03.849Z,40.11
2019-04-30T11:58:20.730Z,41.10
2019-04-30T11:59:13.347Z,41.93
2019-04-30T12:00:19.011Z,40.39
2019-04-30T12:01:27.359Z,40.46
2019-04-30T12:02:35.739Z,41.67
2019-04-30T12:03:39.489Z,40.08
2019-04-30T12:04:43.108Z,38.98
2019-04-30T12:05:48.833Z,40.43
2019-04-30T12:06:53.503Z,37.61
2019-04-30T12:07:59.741Z,38.06
2019-04-30T12:09:09.134Z,36.03
2019-04-30T12:10:14.726Z,35.72
2019-04-30T12:11:20.016Z,35.36
2019-04-30T12:12:24.660Z,32.36
2019-04-30T12:13:29.944Z,32.41
2019-04-30T12:14:33.585Z,31.21
2019-04-30T12:15:37.247Z,32.11
2019-04-30T12:16:40.883Z,32.63
2019-04-30T12:17:44.600Z,32.35
2019-04-30T12:18:48.252Z,30.52
2019-04-30T12:19:51.947Z,32.61
2019-04-30T12:20:55.612Z,30.44
2019-04-30T12:21:59.265Z,32.05
2019-04-30T12:23:03.230Z,31.79
2019-04-30T12:24:07.821Z,31.49
2019-04-30T12:25:11.758Z,33.72
2019-04-30T12:26:15.467Z,32.94
2019-04-30T12:27:19.209Z,32.28
2019-04-30T12:28:22.858Z,31.52
2019-04-30T12:29:26.494Z,32.45
2019-04-30T12:30:30.232Z,31.15
2019-04-30T12:31:33.881Z,32.47
2019-04-30T12:32:39.178Z,31.80
2019-04-30T12:33:43.049Z,30.64
2019-04-30T12:34:46.795Z,29.82
2019-04-30T12:35:51.326Z,30.04
2019-04-30T12:36:55.188Z,30.44
2019-04-30T12:37:58.929Z,30.70
2019-04-30T12:39:02.703Z,30.80
2019-04-30T12:40:10.797Z,29.62
2019-04-30T12:41:13.879Z,29.34
2019-04-30T12:42:18.838Z,30.29
2019-04-30T12:43:22.746Z,29.56
2019-04-30T12:44:26.394Z,28.38
2019-04-30T12:45:30.189Z,27.98
2019-04-30T12:46:33.861Z,29.61
2019-04-30T12:47:39.169Z,29.22
2019-04-30T12:48:50.478Z,28.40
2019-04-30T12:50:12.255Z,29.76
2019-04-30T12:51:23.546Z,29.57
2019-04-30T12:52:31.872Z,29.30
2019-04-30T12:53:43.174Z,30.24
2019-04-30T12:54:57.127Z,31.38
2019-04-30T12:56:05.398Z,30.20
2019-04-30T12:57:11.161Z,30.26
2019-04-30T12:58:15.017Z,31.83
2019-04-30T12:59:18.641Z,32.16
2019-04-30T13:00:22.506Z,31.79
2019-04-30T13:01:26.306Z,32.69
2019-04-30T13:02:29.954Z,32.78
2019-04-30T13:03:33.596Z,32.69
2019-04-30T13:04:39.236Z,32.39
2019-04-30T13:05:42.877Z,32.49
2019-04-30T13:06:48.705Z,32.42
2019-04-30T13:07:52.806Z,33.00
2019-04-30T13:08:59.838Z,33.64
2019-04-30T13:10:03.130Z,34.10
2019-04-30T13:11:10.220Z,32.84
2019-04-30T13:12:13.336Z,33.18
2019-04-30T13:13:17.951Z,34.81
2019-04-30T13:14:22.380Z,33.48
2019-04-30T13:15:26.607Z,32.73
2019-04-30T13:16:30.238Z,33.36
2019-04-30T13:17:34.624Z,33.08
2019-04-30T13:18:39.397Z,31.02
2019-04-30T13:19:43.192Z,31.91
2019-04-30T13:20:48.971Z,30.12
2019-04-30T13:21:52.764Z,30.68
2019-04-30T13:22:58.762Z,29.79
2019-04-30T13:24:02.135Z,31.12
2019-04-30T13:25:06.804Z,29.41
2019-04-30T13:26:10.595Z,30.14
2019-04-30T13:27:14.393Z,30.62
2019-04-30T13:28:19.690Z,30.14
2019-04-30T13:29:39.922Z,31.79
2019-04-30T13:30:43.693Z,32.04
2019-04-30T13:31:50.092Z,30.05
2019-04-30T13:32:59.287Z,29.05
2019-04-30T13:34:08.507Z,28.07
2019-04-30T13:35:12.586Z,29.03
2019-04-30T13:36:16.352Z,29.33
2019-04-30T13:37:20.090Z,27.37
2019-04-30T13:38:49.151Z,27.74
2019-04-30T13:39:53.998Z,27.00
2019-04-30T13:41:11.465Z,27.33
2019-04-30T13:42:18.601Z,26.56
2019-04-30T13:43:29.880Z,25.84
2019-04-30T13:44:35.290Z,25.47
2019-04-30T13:45:38.928Z,24.78
2019-04-30T13:46:42.676Z,25.39
2019-04-30T13:47:46.320Z,26.74
2019-04-30T13:48:50.184Z,24.60
2019-04-30T13:49:53.985Z,25.25
2019-04-30T13:50:57.640Z,25.62
2019-04-30T13:52:01.339Z,25.76
2019-04-30T13:53:05.228Z,25.42
2019-04-30T13:54:08.920Z,24.54
2019-04-30T13:55:12.864Z,26.15
2019-04-30T13:56:20.050Z,25.43
2019-04-30T13:57:21.893Z,25.31
2019-04-30T13:58:26.104Z,26.50
2019-04-30T13:59:29.915Z,25.32
2019-04-30T14:00:33.762Z,24.38